Time;durP1;ratioP1;P1;durP2;ratioP2;P2;SDS_P1;SDS_P2;PMS_P1;PMS_P2;Temp;Humidity;BMP_temperature;BMP_pressure;BME280_temperature;BME280_humidity;BME280_pressure;Samples;Min_cycle;Max_cycle;Signal;HPM_P1;HPM_P2
2022/02/24 00:00:53;;;;;;;10.55;3.33;;;;;;;;;;4975404;28;20046;-68
2022/02/24 00:03:19;;;;;;;13.50;2.90;;;;;;;;;;4975584;28;20050;-67
2022/02/24 00:05:46;;;;;;;10.55;3.00;;;;;;;;;;4973557;28;20055;-68
2022/02/24 00:08:12;;;;;;;8.68;3.40;;;;;;;;;;4978516;28;20057;-68
2022/02/24 00:10:38;;;;;;;12.98;3.55;;;;;;;;;;4978621;28;20054;-68
2022/02/24 00:13:05;;;;;;;8.43;2.90;;;;;;;;;;4985533;28;20061;-68
2022/02/24 00:15:31;;;;;;;9.60;3.05;;;;;;;;;;4981994;28;20350;-68
2022/02/24 00:17:57;;;;;;;11.75;3.65;;;;;;;;;;4966153;28;20057;-68
2022/02/24 00:20:24;;;;;;;10.25;3.10;;;;;;;;;;4978141;28;20046;-68
2022/02/24 00:22:50;;;;;;;8.43;2.90;;;;;;;;;;4976900;28;20050;-68
2022/02/24 00:25:16;;;;;;;9.07;2.60;;;;;;;;;;4969993;28;20038;-68
2022/02/24 00:27:43;;;;;;;8.27;2.47;;;;;;;;;;4979032;28;20051;-68
2022/02/24 00:30:09;;;;;;;13.43;3.00;;;;;;;;;;4974663;28;20057;-67
2022/02/24 00:32:35;;;;;;;10.18;2.83;;;;;;;;;;4980966;28;20054;-67
2022/02/24 00:35:02;;;;;;;7.93;2.28;;;;;;;;;;4970296;28;20052;-67
2022/02/24 00:37:28;;;;;;;8.23;2.47;;;;;;;;;;4965025;28;20062;-67
2022/02/24 00:39:55;;;;;;;11.40;2.97;;;;;;;;;;4969379;28;20435;-67
2022/02/24 00:42:21;;;;;;;9.20;3.10;;;;;;;;;;4967449;28;20046;-67
2022/02/24 00:44:47;;;;;;;13.05;3.20;;;;;;;;;;4960047;28;20131;-67
2022/02/24 00:47:14;;;;;;;13.45;2.95;;;;;;;;;;4976240;28;20574;-67
2022/02/24 00:49:41;;;;;;;9.25;3.03;;;;;;;;;;4965105;28;20054;-67
2022/02/24 00:52:07;;;;;;;7.68;2.88;;;;;;;;;;4977988;28;20047;-67
2022/02/24 00:54:34;;;;;;;9.40;2.92;;;;;;;;;;4956494;28;20388;-67
2022/02/24 00:57:00;;;;;;;11.63;2.95;;;;;;;;;;4973381;28;20058;-67
2022/02/24 00:59:26;;;;;;;11.40;2.88;;;;;;;;;;4951923;28;20058;-67
2022/02/24 01:01:53;;;;;;;15.93;4.18;;;;;;;;;;4971407;28;20047;-67
2022/02/24 01:04:20;;;;;;;9.13;2.80;;;;;;;;;;4961343;28;20054;-67
2022/02/24 01:06:46;;;;;;;11.40;3.00;;;;;;;;;;4971816;28;20059;-67
2022/02/24 01:09:12;;;;;;;13.82;3.75;;;;;;;;;;4970245;28;20054;-67
2022/02/24 01:11:39;;;;;;;10.25;3.50;;;;;;;;;;4957674;28;20050;-67
2022/02/24 01:14:05;;;;;;;10.77;3.38;;;;;;;;;;4969120;28;20050;-67
2022/02/24 01:16:31;;;;;;;14.27;3.42;;;;;;;;;;4959715;28;20042;-67
2022/02/24 01:18:58;;;;;;;14.52;4.13;;;;;;;;;;4979585;28;20131;-67
2022/02/24 01:21:24;;;;;;;15.90;4.32;;;;;;;;;;4960715;28;20053;-67
2022/02/24 01:23:51;;;;;;;8.20;3.10;;;;;;;;;;4971881;28;20051;-67
2022/02/24 01:26:17;;;;;;;14.38;3.97;;;;;;;;;;4970740;28;20038;-67
2022/02/24 01:28:43;;;;;;;18.23;3.75;;;;;;;;;;4971683;28;20621;-67
2022/02/24 01:31:10;;;;;;;12.48;3.80;;;;;;;;;;4968579;28;20054;-67
2022/02/24 01:33:36;;;;;;;15.40;3.42;;;;;;;;;;4970289;28;20524;-67
2022/02/24 01:36:03;;;;;;;13.63;3.60;;;;;;;;;;4972106;28;20054;-68
2022/02/24 01:38:29;;;;;;;10.73;3.75;;;;;;;;;;4967470;28;20043;-67
2022/02/24 01:40:56;;;;;;;11.93;3.63;;;;;;;;;;4965709;28;20050;-68
2022/02/24 01:43:25;;;;;;;8.68;3.47;;;;;;;;;;4971633;28;20050;-67
2022/02/24 01:45:51;;;;;;;14.82;4.07;;;;;;;;;;4967853;28;20054;-67
2022/02/24 01:48:18;;;;;;;15.18;4.32;;;;;;;;;;4971237;28;20294;-67
2022/02/24 01:50:44;;;;;;;11.85;4.15;;;;;;;;;;4967193;28;20057;-67
2022/02/24 01:53:10;;;;;;;12.85;3.97;;;;;;;;;;4964375;28;20509;-67
2022/02/24 01:55:37;;;;;;;13.77;4.53;;;;;;;;;;4966618;28;20271;-67
2022/02/24 01:58:03;;;;;;;16.50;4.75;;;;;;;;;;4969601;28;20261;-67
2022/02/24 02:00:30;;;;;;;14.30;4.03;;;;;;;;;;4978048;28;20051;-67
2022/02/24 02:02:57;;;;;;;10.48;4.43;;;;;;;;;;4961103;28;20466;-67
2022/02/24 02:05:23;;;;;;;11.80;4.20;;;;;;;;;;4976181;28;20403;-67
2022/02/24 02:07:49;;;;;;;8.90;3.22;;;;;;;;;;4954934;28;20051;-67
2022/02/24 02:10:16;;;;;;;11.52;3.85;;;;;;;;;;4978700;28;21105;-68
2022/02/24 02:12:49;;;;;;;18.58;4.00;;;;;;;;;;4973510;28;20050;-67
2022/02/24 02:15:16;;;;;;;15.38;4.05;;;;;;;;;;4971147;28;20050;-67
2022/02/24 02:17:43;;;;;;;11.23;3.75;;;;;;;;;;4970736;28;20074;-67
2022/02/24 02:20:10;;;;;;;12.88;4.47;;;;;;;;;;4959629;28;20415;-68
2022/02/24 02:22:36;;;;;;;13.50;3.58;;;;;;;;;;4969940;28;20054;-68
2022/02/24 02:25:04;;;;;;;12.60;4.22;;;;;;;;;;4963650;28;20432;-67
2022/02/24 02:27:30;;;;;;;9.25;3.63;;;;;;;;;;4976608;28;20424;-67
2022/02/24 02:29:57;;;;;;;12.32;4.05;;;;;;;;;;4969394;28;20389;-67
2022/02/24 02:32:24;;;;;;;9.30;3.38;;;;;;;;;;4971649;28;20056;-67
2022/02/24 02:34:50;;;;;;;11.18;3.45;;;;;;;;;;4958724;28;20392;-67
2022/02/24 02:37:17;;;;;;;8.88;3.38;;;;;;;;;;4966171;28;20157;-67
2022/02/24 02:39:43;;;;;;;12.00;3.35;;;;;;;;;;4968304;28;20050;-67
2022/02/24 02:42:10;;;;;;;14.05;4.13;;;;;;;;;;4970754;28;20659;-68
2022/02/24 02:44:36;;;;;;;13.48;3.65;;;;;;;;;;4969370;28;20053;-68
2022/02/24 02:47:03;;;;;;;11.77;3.50;;;;;;;;;;4969240;28;20049;-68
2022/02/24 02:49:29;;;;;;;10.57;2.88;;;;;;;;;;4960101;28;20073;-68
2022/02/24 02:51:55;;;;;;;13.25;4.13;;;;;;;;;;4975893;28;20355;-68
2022/02/24 02:54:22;;;;;;;13.65;3.63;;;;;;;;;;4964138;28;20503;-68
2022/02/24 02:56:48;;;;;;;20.50;3.53;;;;;;;;;;4969582;28;20057;-68
2022/02/24 02:59:17;;;;;;;12.00;2.50;;;;;;;;;;4971159;28;20046;-67
2022/02/24 03:01:49;;;;;;;12.68;2.60;;;;;;;;;;4959411;28;20057;-67
2022/02/24 03:04:15;;;;;;;14.07;3.10;;;;;;;;;;4977284;28;20601;-67
2022/02/24 03:06:41;;;;;;;11.10;2.90;;;;;;;;;;4960248;28;20053;-67
2022/02/24 03:09:08;;;;;;;12.27;2.70;;;;;;;;;;4978969;28;20062;-68
2022/02/24 03:11:34;;;;;;;14.50;3.05;;;;;;;;;;4960216;28;20061;-68
2022/02/24 03:14:01;;;;;;;13.35;3.25;;;;;;;;;;4970508;28;20186;-68
2022/02/24 03:16:27;;;;;;;11.38;2.83;;;;;;;;;;4957701;28;20050;-68
2022/02/24 03:18:53;;;;;;;9.13;3.00;;;;;;;;;;4973596;28;20051;-67
2022/02/24 03:21:20;;;;;;;10.98;3.25;;;;;;;;;;4971187;28;20474;-67
2022/02/24 03:23:46;;;;;;;13.25;2.70;;;;;;;;;;4961107;28;20046;-68
2022/02/24 03:26:12;;;;;;;9.63;2.40;;;;;;;;;;4969022;28;20050;-68
2022/02/24 03:28:38;;;;;;;12.38;2.58;;;;;;;;;;4958774;28;20054;-68
2022/02/24 03:31:05;;;;;;;11.57;2.70;;;;;;;;;;4969290;28;20057;-68
2022/02/24 03:33:32;;;;;;;10.63;2.72;;;;;;;;;;4961357;28;20874;-68
2022/02/24 03:35:58;;;;;;;7.45;2.20;;;;;;;;;;4972788;28;20053;-68
2022/02/24 03:38:24;;;;;;;13.23;3.10;;;;;;;;;;4967532;28;20054;-67
2022/02/24 03:40:50;;;;;;;13.20;2.85;;;;;;;;;;4967557;28;20096;-67
2022/02/24 03:43:17;;;;;;;13.93;2.63;;;;;;;;;;4966091;28;20276;-67
2022/02/24 03:45:43;;;;;;;8.77;2.65;;;;;;;;;;4964259;28;20055;-67
2022/02/24 03:48:15;;;;;;;11.73;2.53;;;;;;;;;;4975367;28;20057;-67
2022/02/24 03:50:41;;;;;;;10.90;2.83;;;;;;;;;;4969441;28;20062;-67
2022/02/24 03:53:07;;;;;;;12.88;3.00;;;;;;;;;;4969881;28;20054;-67
2022/02/24 03:55:34;;;;;;;9.63;2.80;;;;;;;;;;4962587;28;20328;-67
2022/02/24 03:58:00;;;;;;;10.25;2.75;;;;;;;;;;4962371;28;21591;-67
2022/02/24 04:00:26;;;;;;;3.40;1.80;;;;;;;;;;4968137;28;20069;-67
2022/02/24 04:02:55;;;;;;;8.77;2.50;;;;;;;;;;4965048;28;20292;-68
2022/02/24 04:05:22;;;;;;;9.45;2.85;;;;;;;;;;4964656;28;20145;-68
2022/02/24 04:07:48;;;;;;;12.52;2.63;;;;;;;;;;4972286;28;20050;-68
2022/02/24 04:10:15;;;;;;;14.20;2.70;;;;;;;;;;4959389;28;20059;-68
2022/02/24 04:12:41;;;;;;;12.05;3.50;;;;;;;;;;4969314;28;20368;-68
2022/02/24 04:15:07;;;;;;;10.95;2.42;;;;;;;;;;4964519;28;20076;-68
2022/02/24 04:17:34;;;;;;;10.63;2.40;;;;;;;;;;4971695;28;20051;-67
2022/02/24 04:20:00;;;;;;;9.50;2.50;;;;;;;;;;4965275;28;20384;-67
2022/02/24 04:22:26;;;;;;;10.55;3.10;;;;;;;;;;4962764;28;20038;-67
2022/02/24 04:24:53;;;;;;;11.13;2.38;;;;;;;;;;4969480;28;20069;-67
2022/02/24 04:27:19;;;;;;;8.25;2.60;;;;;;;;;;4959266;28;20496;-67
2022/02/24 04:29:45;;;;;;;8.18;2.58;;;;;;;;;;4974558;28;20045;-67
2022/02/24 04:32:12;;;;;;;9.15;2.88;;;;;;;;;;4959084;28;20524;-67
2022/02/24 04:34:38;;;;;;;14.10;3.15;;;;;;;;;;4972132;28;20055;-67
2022/02/24 04:37:04;;;;;;;15.13;3.47;;;;;;;;;;4958988;28;20069;-68
2022/02/24 04:39:31;;;;;;;12.13;3.00;;;;;;;;;;4964730;28;20046;-67
2022/02/24 04:41:57;;;;;;;11.95;3.85;;;;;;;;;;4973021;28;20042;-67
2022/02/24 04:44:23;;;;;;;14.07;3.15;;;;;;;;;;4962717;28;20050;-68
2022/02/24 04:46:50;;;;;;;18.58;3.53;;;;;;;;;;4971294;28;20248;-68
2022/02/24 04:49:16;;;;;;;9.77;2.90;;;;;;;;;;4956996;28;20047;-68
2022/02/24 04:51:43;;;;;;;9.73;3.72;;;;;;;;;;4975087;28;20808;-68
2022/02/24 04:54:09;;;;;;;9.85;3.00;;;;;;;;;;4963494;28;20058;-68
2022/02/24 04:56:35;;;;;;;12.45;4.28;;;;;;;;;;4973231;28;20054;-68
2022/02/24 04:59:01;;;;;;;12.43;3.65;;;;;;;;;;4972868;28;20774;-68
2022/02/24 05:01:28;;;;;;;14.43;3.15;;;;;;;;;;4970332;28;20039;-68
2022/02/24 05:03:55;;;;;;;10.77;3.47;;;;;;;;;;4975228;28;20457;-68
2022/02/24 05:06:21;;;;;;;17.23;3.33;;;;;;;;;;4958811;28;20245;-68
2022/02/24 05:08:48;;;;;;;16.52;3.42;;;;;;;;;;4977109;28;20057;-68
2022/02/24 05:11:14;;;;;;;15.73;4.13;;;;;;;;;;4972582;28;20046;-68
2022/02/24 05:13:40;;;;;;;14.55;2.80;;;;;;;;;;4971216;28;20053;-68
2022/02/24 05:16:07;;;;;;;13.98;3.78;;;;;;;;;;4971874;28;20054;-67
2022/02/24 05:18:33;;;;;;;11.48;2.80;;;;;;;;;;4970449;28;20051;-68
2022/02/24 05:20:59;;;;;;;16.20;3.30;;;;;;;;;;4972462;28;20050;-68
2022/02/24 05:23:26;;;;;;;12.00;3.25;;;;;;;;;;4970461;28;20054;-67
2022/02/24 05:25:52;;;;;;;10.98;3.05;;;;;;;;;;4972441;28;20424;-67
2022/02/24 05:28:18;;;;;;;13.93;3.22;;;;;;;;;;4970327;28;20054;-68
2022/02/24 05:30:45;;;;;;;8.35;3.22;;;;;;;;;;4960138;28;20054;-67
2022/02/24 05:33:11;;;;;;;16.45;3.53;;;;;;;;;;4972947;28;20062;-67
2022/02/24 05:35:37;;;;;;;13.48;3.42;;;;;;;;;;4968968;28;20057;-68
2022/02/24 05:38:04;;;;;;;9.48;3.10;;;;;;;;;;4968702;28;20055;-68
2022/02/24 05:40:30;;;;;;;14.43;3.45;;;;;;;;;;4974217;28;20428;-68
2022/02/24 05:42:58;;;;;;;11.13;3.05;;;;;;;;;;4964302;28;20065;-68
2022/02/24 05:45:24;;;;;;;12.30;2.72;;;;;;;;;;4972127;28;20058;-68
2022/02/24 05:47:50;;;;;;;10.88;3.03;;;;;;;;;;4962642;28;20042;-67
2022/02/24 05:50:17;;;;;;;10.45;3.50;;;;;;;;;;4975717;28;20057;-67
2022/02/24 05:52:44;;;;;;;13.90;3.05;;;;;;;;;;4964736;28;20062;-68
2022/02/24 05:55:11;;;;;;;11.05;3.10;;;;;;;;;;4974733;28;20065;-67
2022/02/24 05:57:37;;;;;;;14.80;3.40;;;;;;;;;;4963750;28;20058;-67
2022/02/24 06:00:04;;;;;;;12.82;2.90;;;;;;;;;;4966191;28;20562;-67
2022/02/24 06:02:30;;;;;;;10.30;2.92;;;;;;;;;;4980594;28;20053;-67
2022/02/24 06:04:57;;;;;;;12.57;3.20;;;;;;;;;;4962114;28;20118;-68
2022/02/24 06:07:23;;;;;;;11.30;3.25;;;;;;;;;;4976417;28;20455;-68
2022/02/24 06:09:49;;;;;;;10.23;2.97;;;;;;;;;;4961171;28;20077;-68
2022/02/24 06:12:16;;;;;;;8.80;3.03;;;;;;;;;;4973484;28;20046;-68
2022/02/24 06:14:42;;;;;;;12.05;2.95;;;;;;;;;;4961568;28;20047;-68
2022/02/24 06:17:08;;;;;;;10.65;2.88;;;;;;;;;;4970313;28;20051;-67
2022/02/24 06:19:34;;;;;;;10.23;2.88;;;;;;;;;;4977250;28;20042;-67
2022/02/24 06:22:01;;;;;;;10.38;3.58;;;;;;;;;;4962687;28;20054;-68
2022/02/24 06:24:28;;;;;;;15.43;3.95;;;;;;;;;;4973513;28;20087;-68
2022/02/24 06:26:54;;;;;;;11.00;3.22;;;;;;;;;;4954620;28;20050;-68
2022/02/24 06:29:20;;;;;;;16.80;3.20;;;;;;;;;;4980929;28;20055;-68
2022/02/24 06:31:47;;;;;;;9.32;2.85;;;;;;;;;;4971224;28;20747;-68
2022/02/24 06:34:13;;;;;;;15.98;3.30;;;;;;;;;;4970853;28;20047;-68
2022/02/24 06:36:39;;;;;;;10.15;2.58;;;;;;;;;;4976091;28;20515;-67
2022/02/24 06:39:05;;;;;;;10.55;2.67;;;;;;;;;;4977013;28;20451;-67
2022/02/24 06:41:32;;;;;;;13.38;2.85;;;;;;;;;;4981045;28;20046;-68
2022/02/24 06:43:58;;;;;;;12.43;3.67;;;;;;;;;;4976645;28;20054;-67
2022/02/24 06:46:25;;;;;;;11.40;3.33;;;;;;;;;;4983186;28;20081;-67
2022/02/24 06:48:51;;;;;;;9.80;2.80;;;;;;;;;;4987264;28;20054;-67
2022/02/24 06:51:17;;;;;;;12.95;2.85;;;;;;;;;;4974985;28;20061;-67
2022/02/24 06:53:44;;;;;;;12.30;3.20;;;;;;;;;;4974058;28;20046;-67
2022/02/24 06:56:10;;;;;;;13.93;2.95;;;;;;;;;;4973474;28;20050;-68
2022/02/24 06:58:41;;;;;;;9.95;2.50;;;;;;;;;;4970967;28;20054;-67
2022/02/24 07:01:07;;;;;;;11.32;3.45;;;;;;;;;;4982875;28;20054;-67
2022/02/24 07:03:34;;;;;;;12.43;3.58;;;;;;;;;;4992037;28;20596;-67
2022/02/24 07:06:03;;;;;;;12.35;2.55;;;;;;;;;;4977781;28;20050;-67
2022/02/24 07:08:30;;;;;;;12.45;3.05;;;;;;;;;;4966243;28;20046;-67
2022/02/24 07:10:56;;;;;;;9.00;2.65;;;;;;;;;;4983049;28;20046;-67
2022/02/24 07:13:23;;;;;;;15.43;3.25;;;;;;;;;;4974456;28;20283;-67
2022/02/24 07:16:09;;;;;;;13.98;2.95;;;;;;;;;;4980594;28;20097;-67
2022/02/24 07:18:36;;;;;;;10.45;2.42;;;;;;;;;;4974288;28;20483;-67
2022/02/24 07:21:02;;;;;;;9.52;2.58;;;;;;;;;;4976064;28;20054;-67
2022/02/24 07:23:28;;;;;;;9.07;2.67;;;;;;;;;;4978118;28;20252;-67
2022/02/24 07:25:56;;;;;;;8.90;2.17;;;;;;;;;;4973538;28;20410;-67
2022/02/24 07:28:22;;;;;;;15.48;3.22;;;;;;;;;;4975323;28;20050;-67
2022/02/24 07:30:49;;;;;;;10.82;2.70;;;;;;;;;;4974261;28;20165;-67
2022/02/24 07:33:16;;;;;;;14.63;2.50;;;;;;;;;;4977413;28;20057;-66
2022/02/24 07:35:42;;;;;;;14.60;2.80;;;;;;;;;;4967259;28;20053;-67
2022/02/24 07:38:10;;;;;;;11.57;2.58;;;;;;;;;;4982541;28;20488;-67
2022/02/24 07:40:37;;;;;;;9.07;2.70;;;;;;;;;;4981577;28;20081;-67
2022/02/24 07:43:03;;;;;;;11.35;2.60;;;;;;;;;;4971960;28;20054;-67
2022/02/24 07:45:29;;;;;;;9.75;2.28;;;;;;;;;;4982342;28;20510;-67
2022/02/24 07:47:56;;;;;;;12.00;2.28;;;;;;;;;;4959229;28;20038;-67
2022/02/24 07:50:22;;;;;;;10.02;3.17;;;;;;;;;;4974056;28;20598;-67
2022/02/24 07:52:49;;;;;;;7.40;2.28;;;;;;;;;;4969878;28;20061;-67
2022/02/24 07:55:15;;;;;;;14.07;2.88;;;;;;;;;;4969836;28;20506;-67
2022/02/24 07:57:42;;;;;;;7.45;2.15;;;;;;;;;;4973919;28;20281;-67
2022/02/24 08:00:14;;;;;;;10.40;2.28;;;;;;;;;;4968740;28;20042;-67
2022/02/24 08:02:43;;;;;;;12.45;2.65;;;;;;;;;;4978298;28;20062;-67
2022/02/24 08:05:11;;;;;;;9.55;2.40;;;;;;;;;;4959956;28;20133;-67
2022/02/24 08:07:37;;;;;;;9.77;2.47;;;;;;;;;;4981131;28;20080;-67
2022/02/24 08:10:04;;;;;;;9.60;2.00;;;;;;;;;;4973307;28;20259;-67
2022/02/24 08:12:42;;;;;;;7.72;1.95;;;;;;;;;;4973684;28;20050;-67
2022/02/24 08:15:15;;;;;;;10.45;1.85;;;;;;;;;;4977015;28;20499;-67
2022/02/24 08:17:42;;;;;;;7.00;1.77;;;;;;;;;;4971341;28;20050;-68
2022/02/24 08:20:09;;;;;;;10.80;2.40;;;;;;;;;;4980660;28;20050;-67
2022/02/24 08:22:37;;;;;;;10.02;2.30;;;;;;;;;;4987390;28;20050;-67
2022/02/24 08:25:04;;;;;;;8.00;2.30;;;;;;;;;;4969356;28;20060;-67
2022/02/24 08:27:31;;;;;;;11.13;2.75;;;;;;;;;;4968836;28;20661;-67
2022/02/24 08:30:00;;;;;;;9.43;2.00;;;;;;;;;;4978294;28;20494;-67
2022/02/24 08:32:26;;;;;;;9.32;2.35;;;;;;;;;;4980817;28;20046;-67
2022/02/24 08:34:53;;;;;;;14.70;2.58;;;;;;;;;;4973623;28;20267;-66
2022/02/24 08:37:19;;;;;;;7.93;2.08;;;;;;;;;;4979523;28;20054;-67
2022/02/24 08:39:45;;;;;;;12.65;2.50;;;;;;;;;;4984511;28;20522;-67
2022/02/24 08:42:12;;;;;;;9.20;2.10;;;;;;;;;;4986413;28;20050;-66
2022/02/24 08:44:39;;;;;;;7.80;2.10;;;;;;;;;;4972489;28;20268;-66
2022/02/24 08:47:25;;;;;;;7.78;1.92;;;;;;;;;;4980433;28;20554;-66
2022/02/24 08:49:52;;;;;;;10.20;1.98;;;;;;;;;;4967931;28;20058;-66
2022/02/24 08:52:38;;;;;;;8.15;2.08;;;;;;;;;;4974627;28;20054;-66
2022/02/24 08:55:05;;;;;;;7.63;2.38;;;;;;;;;;4979841;28;20065;-67
2022/02/24 08:57:31;;;;;;;8.68;2.08;;;;;;;;;;4970601;28;20057;-66
2022/02/24 08:59:57;;;;;;;12.85;2.17;;;;;;;;;;4980380;28;20039;-67
2022/02/24 09:02:24;;;;;;;17.42;2.50;;;;;;;;;;4973221;28;20350;-67
2022/02/24 09:04:50;;;;;;;9.13;2.40;;;;;;;;;;4974810;28;20132;-67
2022/02/24 09:07:16;;;;;;;7.80;2.03;;;;;;;;;;4973463;28;20050;-67
2022/02/24 09:09:43;;;;;;;13.77;2.45;;;;;;;;;;4974759;28;20049;-67
2022/02/24 09:12:09;;;;;;;9.65;2.50;;;;;;;;;;4974696;28;20046;-67
2022/02/24 09:14:36;;;;;;;10.35;1.85;;;;;;;;;;4971071;28;20070;-66
2022/02/24 09:17:02;;;;;;;10.88;2.28;;;;;;;;;;4977590;28;20057;-67
2022/02/24 09:19:29;;;;;;;9.13;2.05;;;;;;;;;;4967723;28;20052;-66
2022/02/24 09:21:55;;;;;;;8.48;2.33;;;;;;;;;;4980449;28;20056;-67
2022/02/24 09:24:22;;;;;;;10.23;2.22;;;;;;;;;;4982364;28;20050;-67
2022/02/24 09:26:49;;;;;;;11.73;1.83;;;;;;;;;;4969897;28;20050;-67
2022/02/24 09:29:15;;;;;;;10.55;1.73;;;;;;;;;;4979615;28;20528;-67
2022/02/24 09:31:42;;;;;;;6.75;1.60;;;;;;;;;;4967589;28;20231;-68
2022/02/24 09:34:09;;;;;;;7.97;1.73;;;;;;;;;;4974291;28;20042;-67
2022/02/24 09:36:35;;;;;;;10.40;2.00;;;;;;;;;;4976689;28;20388;-67
2022/02/24 09:39:01;;;;;;;9.70;1.95;;;;;;;;;;4996013;28;20046;-67
2022/02/24 09:41:28;;;;;;;5.80;1.98;;;;;;;;;;4985445;28;20052;-67
2022/02/24 09:43:54;;;;;;;8.25;2.10;;;;;;;;;;4971907;28;20050;-67
2022/02/24 09:46:20;;;;;;;6.72;2.33;;;;;;;;;;4980495;28;20096;-67
2022/02/24 09:48:47;;;;;;;10.25;1.95;;;;;;;;;;4971534;28;20050;-68
2022/02/24 09:51:15;;;;;;;9.27;1.90;;;;;;;;;;4984187;28;20418;-67
2022/02/24 09:53:43;;;;;;;7.55;1.60;;;;;;;;;;4976384;28;20369;-67
2022/02/24 09:56:17;;;;;;;7.78;1.63;;;;;;;;;;4984359;28;20061;-67
2022/02/24 09:58:45;;;;;;;7.50;2.22;;;;;;;;;;4982799;28;20054;-67
2022/02/24 10:01:13;;;;;;;10.02;1.58;;;;;;;;;;4969656;28;20747;-67
2022/02/24 10:03:44;;;;;;;;;;;;;;;;;;4984095;28;20425;-67
2022/02/24 10:06:11;;;;;;;7.72;1.83;;;;;;;;;;4967468;28;19980;-67
2022/02/24 10:08:44;;;;;;;4.55;1.30;;;;;;;;;;4986365;28;20050;-67
2022/02/24 10:11:18;;;;;;;7.22;1.65;;;;;;;;;;4974045;28;20046;-67
2022/02/24 10:14:07;;;;;;;7.05;1.77;;;;;;;;;;4979633;28;20056;-67
2022/02/24 10:16:53;;;;;;;6.95;1.75;;;;;;;;;;4971319;28;20061;-68
2022/02/24 10:19:29;;;;;;;9.00;1.85;;;;;;;;;;4974353;28;20050;-68
2022/02/24 10:22:05;;;;;;;6.22;2.00;;;;;;;;;;4983919;28;20428;-67
2022/02/24 10:24:32;;;;;;;4.95;1.63;;;;;;;;;;4977577;28;20530;-67
2022/02/24 10:27:17;;;;;;;8.48;1.55;;;;;;;;;;4983116;28;20415;-67
2022/02/24 10:30:13;;;;;;;10.45;1.40;;;;;;;;;;4968321;28;20054;-67
2022/02/24 10:32:41;;;;;;;10.52;1.58;;;;;;;;;;4982918;28;20056;-68
2022/02/24 10:35:21;;;;;;;8.40;2.20;;;;;;;;;;4964085;28;20061;-67
2022/02/24 10:37:58;;;;;;;9.60;1.80;;;;;;;;;;4978408;28;20420;-67
2022/02/24 10:40:26;;;;;;;10.82;1.55;;;;;;;;;;4975926;28;20116;-67
2022/02/24 10:42:54;;;;;;;8.23;1.95;;;;;;;;;;4974334;28;20048;-67
2022/02/24 10:45:24;;;;;;;13.05;2.10;;;;;;;;;;4962443;28;20615;-68
2022/02/24 10:47:55;;;;;;;9.25;1.63;;;;;;;;;;4981101;28;20061;-67
2022/02/24 10:50:41;;;;;;;8.45;1.65;;;;;;;;;;4982342;28;20050;-67
2022/02/24 10:53:07;;;;;;;7.97;1.80;;;;;;;;;;4982397;28;20046;-67
2022/02/24 10:55:51;;;;;;;8.68;1.40;;;;;;;;;;4978417;28;20050;-67
2022/02/24 10:58:17;;;;;;;11.02;2.20;;;;;;;;;;4962222;28;20057;-67
2022/02/24 11:00:44;;;;;;;9.30;1.90;;;;;;;;;;4984230;28;20065;-68
2022/02/24 11:03:11;;;;;;;12.77;1.95;;;;;;;;;;4980869;28;20050;-68
2022/02/24 11:05:39;;;;;;;9.50;2.17;;;;;;;;;;4982725;28;20599;-67
2022/02/24 11:08:07;;;;;;;12.27;1.77;;;;;;;;;;4980466;28;20046;-67
2022/02/24 11:10:35;;;;;;;7.28;1.70;;;;;;;;;;4985432;28;20049;-68
2022/02/24 11:13:01;;;;;;;11.77;2.13;;;;;;;;;;4978698;28;20084;-67
2022/02/24 11:15:28;;;;;;;10.82;1.50;;;;;;;;;;4972128;28;20057;-67
2022/02/24 11:17:55;;;;;;;3.17;1.20;;;;;;;;;;4979034;28;20396;-67
2022/02/24 11:20:22;;;;;;;7.85;1.50;;;;;;;;;;4971942;28;20042;-67
2022/02/24 11:22:48;;;;;;;5.38;1.45;;;;;;;;;;4982545;28;20043;-67
2022/02/24 11:25:18;;;;;;;9.85;1.83;;;;;;;;;;4979978;28;20325;-67
2022/02/24 11:27:48;;;;;;;9.68;2.15;;;;;;;;;;4977404;28;20099;-67
2022/02/24 11:30:19;;;;;;;9.80;1.95;;;;;;;;;;4984488;28;20054;-67
2022/02/24 11:32:46;;;;;;;5.53;1.70;;;;;;;;;;4973729;28;20061;-67
2022/02/24 11:35:17;;;;;;;8.63;1.90;;;;;;;;;;4981107;28;20299;-67
2022/02/24 11:38:05;;;;;;;4.20;1.15;;;;;;;;;;4986224;28;20813;-67
2022/02/24 11:40:36;;;;;;;8.60;1.35;;;;;;;;;;4976433;28;20359;-68
2022/02/24 11:43:05;;;;;;;8.63;1.70;;;;;;;;;;4972930;28;20046;-67
2022/02/24 11:45:33;;;;;;;7.75;1.35;;;;;;;;;;4996351;28;20172;-68
2022/02/24 11:47:59;;;;;;;7.47;1.47;;;;;;;;;;4981216;28;20052;-67
2022/02/24 11:50:39;;;;;;;9.75;1.20;;;;;;;;;;4973453;28;20298;-67
2022/02/24 11:53:07;;;;;;;9.23;1.40;;;;;;;;;;4973561;28;20050;-67
2022/02/24 11:55:44;;;;;;;10.07;1.30;;;;;;;;;;4983367;28;20046;-67
2022/02/24 11:58:29;;;;;;;10.07;1.38;;;;;;;;;;4980933;28;20629;-68
2022/02/24 12:01:14;;;;;;;6.13;1.50;;;;;;;;;;4967511;28;20053;-69
2022/02/24 12:03:44;;;;;;;8.13;1.40;;;;;;;;;;4980304;28;20061;-67
2022/02/24 12:06:17;;;;;;;7.18;1.35;;;;;;;;;;4968799;28;20046;-67
2022/02/24 12:09:10;;;;;;;3.58;1.23;;;;;;;;;;4976474;28;20062;-68
2022/02/24 12:11:38;;;;;;;5.47;1.30;;;;;;;;;;4979137;28;20058;-67
2022/02/24 12:14:27;;;;;;;2.97;1.17;;;;;;;;;;4993675;28;20057;-67
2022/02/24 12:17:03;;;;;;;7.13;1.23;;;;;;;;;;4986232;28;20140;-67
2022/02/24 12:19:35;;;;;;;6.22;1.20;;;;;;;;;;4968823;28;20335;-68
2022/02/24 12:22:17;;;;;;;4.72;1.00;;;;;;;;;;4976642;28;20082;-67
2022/02/24 12:24:50;;;;;;;4.50;0.90;;;;;;;;;;4971853;28;20050;-68
2022/02/24 12:27:29;;;;;;;4.70;1.10;;;;;;;;;;4980714;28;20050;-67
2022/02/24 12:29:55;;;;;;;;;;;;;;;;;;4987790;28;20815;-67
2022/02/24 12:32:21;;;;;;;5.63;1.25;;;;;;;;;;4981609;28;19933;-68
2022/02/24 12:34:48;;;;;;;4.00;1.15;;;;;;;;;;4966818;28;20451;-67
2022/02/24 12:37:14;;;;;;;8.68;1.45;;;;;;;;;;4978845;28;20055;-67
2022/02/24 12:39:41;;;;;;;7.13;1.10;;;;;;;;;;4980549;28;20050;-67
2022/02/24 12:42:08;;;;;;;4.72;1.40;;;;;;;;;;4970666;28;20051;-67
2022/02/24 12:44:38;;;;;;;9.32;1.63;;;;;;;;;;4988646;28;20054;-67
2022/02/24 12:47:05;;;;;;;3.70;1.10;;;;;;;;;;4971550;28;20100;-67
2022/02/24 12:49:41;;;;;;;5.03;1.00;;;;;;;;;;4988465;28;20813;-67
2022/02/24 12:52:07;;;;;;;4.55;1.20;;;;;;;;;;4972113;28;20492;-68
2022/02/24 12:54:34;;;;;;;3.67;1.15;;;;;;;;;;4980233;28;20050;-67
2022/02/24 12:57:01;;;;;;;3.42;0.75;;;;;;;;;;4990237;28;20384;-68
2022/02/24 12:59:28;;;;;;;8.35;1.42;;;;;;;;;;4972150;28;20054;-67
2022/02/24 13:01:54;;;;;;;6.18;0.80;;;;;;;;;;4977049;28;20498;-67
2022/02/24 13:04:21;;;;;;;5.15;1.10;;;;;;;;;;4967737;28;20125;-67
2022/02/24 13:06:48;;;;;;;4.05;0.93;;;;;;;;;;4984454;28;20050;-67
2022/02/24 13:12:00;;;;;;;3.80;1.08;;;;;;;;;;4991605;28;20081;-67
2022/02/24 13:14:27;;;;;;;4.63;1.00;;;;;;;;;;4978122;28;20054;-66
2022/02/24 13:16:53;;;;;;;3.70;1.15;;;;;;;;;;4971779;28;20050;-67
2022/02/24 13:19:20;;;;;;;5.75;1.10;;;;;;;;;;4982964;28;20058;-67
2022/02/24 13:21:51;;;;;;;6.80;1.27;;;;;;;;;;4977038;28;20172;-67
2022/02/24 13:24:24;;;;;;;5.80;1.17;;;;;;;;;;4984870;28;20058;-68
2022/02/24 13:26:51;;;;;;;4.28;1.10;;;;;;;;;;4976432;28;20089;-67
2022/02/24 13:29:39;;;;;;;6.07;1.02;;;;;;;;;;4987421;28;20046;-68
2022/02/24 13:32:10;;;;;;;3.53;1.17;;;;;;;;;;4972871;28;20047;-67
2022/02/24 13:34:37;;;;;;;3.63;1.08;;;;;;;;;;4983043;28;20061;-68
2022/02/24 13:37:04;;;;;;;8.88;1.58;;;;;;;;;;4987226;28;20050;-67
2022/02/24 13:39:34;;;;;;;9.85;1.33;;;;;;;;;;4971540;28;20074;-68
2022/02/24 13:42:01;;;;;;;5.22;1.30;;;;;;;;;;4980763;28;20468;-67
2022/02/24 13:44:28;;;;;;;4.93;1.23;;;;;;;;;;4968871;28;20516;-68
2022/02/24 13:47:04;;;;;;;2.33;0.98;;;;;;;;;;5000357;28;20043;-68
2022/02/24 13:49:34;;;;;;;7.47;1.20;;;;;;;;;;4975891;28;20117;-68
2022/02/24 13:52:02;;;;;;;6.80;1.35;;;;;;;;;;4982331;28;20057;-68
2022/02/24 13:54:29;;;;;;;8.13;1.38;;;;;;;;;;4983775;28;20070;-68
2022/02/24 13:56:55;;;;;;;3.20;0.70;;;;;;;;;;4974038;28;20054;-68
2022/02/24 13:59:23;;;;;;;2.42;0.70;;;;;;;;;;4991831;28;20069;-68
2022/02/24 14:01:51;;;;;;;2.95;0.65;;;;;;;;;;4973904;28;20133;-67
2022/02/24 14:04:18;;;;;;;2.38;0.60;;;;;;;;;;4983687;28;20098;-68
2022/02/24 14:06:46;;;;;;;3.72;0.70;;;;;;;;;;4971445;28;20727;-67
2022/02/24 14:09:32;;;;;;;1.40;0.60;;;;;;;;;;4984255;28;20057;-68
2022/02/24 14:11:58;;;;;;;3.30;0.55;;;;;;;;;;4983179;28;20328;-68
2022/02/24 14:14:25;;;;;;;4.32;0.70;;;;;;;;;;4976887;28;20050;-67
2022/02/24 14:16:51;;;;;;;2.50;0.50;;;;;;;;;;4984238;28;20054;-67
2022/02/24 14:19:22;;;;;;;3.45;0.65;;;;;;;;;;4970783;28;20105;-67
2022/02/24 14:21:48;;;;;;;3.60;0.50;;;;;;;;;;4995111;28;20049;-68
2022/02/24 14:24:14;;;;;;;3.65;1.58;;;;;;;;;;4971677;28;20068;-68
2022/02/24 14:26:41;;;;;;;3.60;0.60;;;;;;;;;;4981770;28;20080;-69
2022/02/24 14:29:07;;;;;;;2.90;0.60;;;;;;;;;;4984068;28;20046;-68
2022/02/24 14:31:33;;;;;;;2.65;0.68;;;;;;;;;;4975730;28;20054;-68
2022/02/24 14:34:00;;;;;;;2.10;0.40;;;;;;;;;;4986101;28;20081;-68
2022/02/24 14:36:26;;;;;;;1.13;0.30;;;;;;;;;;4968011;28;20137;-68
2022/02/24 14:38:52;;;;;;;0.73;0.22;;;;;;;;;;4987332;28;20053;-68
2022/02/24 14:41:19;;;;;;;1.17;0.40;;;;;;;;;;4966475;28;20853;-68
2022/02/24 14:43:46;;;;;;;0.93;0.40;;;;;;;;;;4982470;28;20046;-68